createdAt,value
2022-11-13T00:01:44.540Z,72.43
2022-11-13T00:04:32.804Z,72.40
2022-11-13T00:07:20.502Z,72.28
2022-11-13T00:10:08.555Z,72.33
2022-11-13T00:12:56.060Z,72.41
2022-11-13T00:15:43.967Z,72.34
2022-11-13T00:18:32.939Z,72.21
2022-11-13T00:21:24.066Z,72.29
2022-11-13T00:24:11.225Z,72.25
2022-11-13T00:26:58.537Z,72.18
2022-11-13T00:29:45.963Z,72.32
2022-11-13T00:32:33.806Z,72.58
2022-11-13T00:35:20.880Z,72.62
2022-11-13T00:38:09.626Z,72.50
2022-11-13T00:40:56.914Z,72.62
2022-11-13T00:43:44.214Z,72.48
2022-11-13T00:46:32.167Z,72.44
2022-11-13T00:49:18.933Z,72.60
2022-11-13T00:52:06.414Z,72.72
2022-11-13T00:54:54.886Z,72.68
2022-11-13T00:57:42.159Z,72.73
2022-11-13T01:00:29.315Z,72.71
2022-11-13T01:03:18.463Z,72.87
2022-11-13T01:06:11.853Z,72.96
2022-11-13T01:08:59.806Z,72.93
2022-11-13T01:11:48.686Z,73.08
2022-11-13T01:14:35.713Z,72.74
2022-11-13T01:17:23.763Z,72.83
2022-11-13T01:20:11.852Z,72.99
2022-11-13T01:22:59.969Z,73.00
2022-11-13T01:25:46.447Z,73.12
2022-11-13T01:28:36.204Z,72.95
2022-11-13T01:31:26.776Z,73.20
2022-11-13T01:34:14.922Z,73.29
2022-11-13T01:37:03.269Z,73.32
2022-11-13T01:39:50.372Z,73.29
2022-11-13T01:42:38.200Z,73.43
2022-11-13T01:46:04.831Z,73.42
2022-11-13T01:48:54.769Z,73.57
2022-11-13T01:51:49.432Z,73.42
2022-11-13T01:54:40.054Z,73.44
2022-11-13T01:57:28.223Z,73.44
2022-11-13T02:00:15.936Z,73.40
2022-11-13T02:03:04.417Z,73.38
2022-11-13T02:05:52.585Z,73.29
2022-11-13T02:08:40.027Z,73.35
2022-11-13T02:11:27.431Z,73.38
2022-11-13T02:14:16.113Z,73.46
2022-11-13T02:17:07.663Z,73.36
2022-11-13T02:20:01.017Z,73.43
2022-11-13T02:22:55.414Z,73.25
2022-11-13T02:25:45.946Z,73.17
2022-11-13T02:28:33.674Z,73.31
2022-11-13T02:31:20.779Z,73.42
2022-11-13T02:34:08.517Z,73.08
2022-11-13T02:36:55.746Z,73.10
2022-11-13T02:39:43.871Z,73.19
2022-11-13T02:42:32.730Z,73.04
2022-11-13T02:45:20.690Z,72.72
2022-11-13T02:48:09.106Z,72.75
2022-11-13T02:50:56.306Z,72.57
2022-11-13T02:53:43.488Z,72.58
2022-11-13T02:56:31.379Z,72.54
2022-11-13T02:59:20.290Z,72.50
2022-11-13T03:02:07.657Z,72.49
2022-11-13T03:08:02.365Z,72.34
2022-11-13T03:10:49.657Z,72.19
2022-11-13T03:13:36.906Z,71.94
2022-11-13T03:16:26.441Z,71.79
2022-11-13T03:19:14.006Z,71.73
2022-11-13T03:22:01.026Z,71.67
2022-11-13T03:24:48.809Z,71.54
2022-11-13T03:27:35.724Z,71.60
2022-11-13T03:30:23.413Z,71.65
2022-11-13T03:33:11.728Z,71.49
2022-11-13T03:35:59.524Z,71.44
2022-11-13T03:38:46.628Z,71.30
2022-11-13T03:41:34.312Z,71.08
2022-11-13T03:44:21.758Z,71.18
2022-11-13T03:47:08.765Z,71.01
2022-11-13T03:49:58.272Z,71.07
2022-11-13T03:52:46.968Z,71.00
2022-11-13T03:55:34.182Z,70.71
2022-11-13T03:58:22.151Z,70.66
2022-11-13T04:01:09.314Z,70.74
2022-11-13T04:03:57.038Z,70.90
2022-11-13T04:06:45.751Z,70.80
2022-11-13T04:09:32.810Z,70.78
2022-11-13T04:12:20.377Z,70.80
2022-11-13T04:15:08.610Z,70.76
2022-11-13T04:17:55.383Z,70.93
2022-11-13T04:20:43.420Z,71.14
2022-11-13T04:23:32.621Z,70.81
2022-11-13T04:26:20.839Z,70.98
2022-11-13T04:29:08.326Z,70.93
2022-11-13T04:31:55.757Z,70.75
2022-11-13T04:34:42.746Z,70.67
2022-11-13T04:37:30.467Z,70.67
2022-11-13T04:40:19.823Z,70.78
2022-11-13T04:43:05.914Z,70.94
2022-11-13T04:45:54.329Z,71.02
2022-11-13T04:48:40.936Z,70.98
2022-11-13T04:51:28.582Z,70.97
2022-11-13T04:54:16.183Z,70.92
2022-11-13T04:57:04.474Z,70.74
2022-11-13T04:59:51.813Z,70.86
2022-11-13T05:02:39.003Z,70.92
2022-11-13T05:05:26.848Z,70.78
2022-11-13T05:08:13.885Z,70.73
2022-11-13T05:11:01.931Z,70.75
2022-11-13T05:13:50.062Z,70.90
2022-11-13T05:16:37.949Z,70.86
2022-11-13T05:19:25.304Z,71.01
2022-11-13T05:22:13.008Z,71.01
2022-11-13T05:25:00.149Z,70.88
2022-11-13T05:27:47.974Z,70.87
2022-11-13T05:30:36.551Z,70.86
2022-11-13T05:33:23.576Z,70.72
2022-11-13T05:36:13.772Z,70.76
2022-11-13T05:39:00.741Z,70.73
2022-11-13T05:41:47.580Z,70.71
2022-11-13T05:44:35.413Z,70.68
2022-11-13T05:47:24.449Z,70.80
2022-11-13T05:50:11.682Z,70.83
2022-11-13T05:52:59.176Z,70.79
2022-11-13T05:55:46.389Z,70.86
2022-11-13T05:58:34.788Z,70.93
2022-11-13T06:01:23.868Z,71.08
2022-11-13T06:04:13.309Z,71.04
2022-11-13T06:07:00.166Z,70.82
2022-11-13T06:09:48.182Z,70.80
2022-11-13T06:12:35.656Z,71.09
2022-11-13T06:15:23.140Z,71.28
2022-11-13T06:18:10.164Z,71.36
2022-11-13T06:21:02.462Z,71.26
2022-11-13T06:23:49.862Z,71.29
2022-11-13T06:26:39.339Z,71.45
2022-11-13T06:29:26.092Z,71.21
2022-11-13T06:32:14.058Z,71.07
2022-11-13T06:35:01.102Z,71.18
2022-11-13T06:37:50.125Z,71.37
2022-11-13T06:40:39.210Z,71.29
2022-11-13T06:43:27.968Z,71.48
2022-11-13T06:46:16.371Z,71.54
2022-11-13T06:49:04.608Z,71.67
2022-11-13T06:51:51.747Z,71.62
2022-11-13T06:54:41.017Z,71.76
2022-11-13T06:57:28.159Z,71.76
2022-11-13T07:00:17.285Z,71.63
2022-11-13T07:03:04.252Z,71.64
2022-11-13T07:05:52.063Z,71.62
2022-11-13T07:08:39.448Z,71.64
2022-11-13T07:11:27.708Z,71.69
2022-11-13T07:14:15.516Z,71.65
2022-11-13T07:17:09.674Z,71.81
2022-11-13T07:19:58.133Z,71.90
2022-11-13T07:22:46.534Z,71.81
2022-11-13T07:25:34.819Z,71.82
2022-11-13T07:28:23.042Z,71.95
2022-11-13T07:31:12.778Z,72.02
2022-11-13T07:33:59.856Z,72.07
2022-11-13T07:36:47.807Z,72.23
2022-11-13T07:39:34.981Z,72.05
2022-11-13T07:42:22.653Z,72.24
2022-11-13T07:45:11.415Z,72.23
2022-11-13T07:47:59.606Z,72.24
2022-11-13T07:50:46.494Z,72.41
2022-11-13T07:53:36.105Z,72.43
2022-11-13T07:56:25.398Z,72.52
2022-11-13T07:59:13.278Z,72.60
2022-11-13T08:02:02.417Z,72.63
2022-11-13T08:04:49.592Z,72.83
2022-11-13T08:07:36.585Z,72.79
2022-11-13T08:10:24.523Z,72.87
2022-11-13T08:13:12.052Z,72.66
2022-11-13T08:16:00.997Z,72.40
2022-11-13T08:18:49.633Z,71.89
2022-11-13T08:21:37.703Z,71.36
2022-11-13T08:24:25.233Z,70.69
2022-11-13T08:27:12.428Z,70.23
2022-11-13T08:29:59.424Z,69.65
2022-11-13T08:32:48.295Z,68.99
2022-11-13T08:35:36.502Z,68.67
2022-11-13T08:38:25.139Z,68.18
2022-11-13T08:41:12.365Z,67.48
2022-11-13T08:44:00.021Z,67.07
2022-11-13T08:46:47.148Z,66.55
2022-11-13T08:49:34.920Z,66.30
2022-11-13T08:52:24.140Z,65.66
2022-11-13T08:55:11.664Z,64.83
2022-11-13T08:58:00.099Z,64.53
2022-11-13T09:00:48.442Z,64.00
2022-11-13T09:03:36.964Z,63.60
2022-11-13T09:06:25.091Z,62.91
2022-11-13T09:09:13.664Z,62.67
2022-11-13T09:12:01.992Z,62.24
2022-11-13T09:14:49.028Z,61.49
2022-11-13T09:17:36.841Z,61.58
2022-11-13T09:20:24.084Z,60.73
2022-11-13T09:23:11.849Z,60.61
2022-11-13T09:26:01.888Z,60.17
2022-11-13T09:28:51.125Z,60.13
2022-11-13T09:31:41.552Z,59.62
2022-11-13T09:34:28.662Z,59.18
2022-11-13T09:37:16.181Z,58.75
2022-11-13T09:40:03.116Z,58.83
2022-11-13T09:42:52.940Z,58.52
2022-11-13T09:45:42.096Z,58.34
2022-11-13T09:48:35.819Z,58.41
2022-11-13T09:51:26.971Z,57.96
2022-11-13T09:54:17.590Z,58.00
2022-11-13T09:57:14.957Z,57.36
2022-11-13T10:00:08.052Z,57.42
2022-11-13T10:03:39.005Z,57.37
2022-11-13T10:06:36.040Z,57.08
2022-11-13T10:09:31.290Z,56.67
2022-11-13T10:12:19.720Z,56.39
2022-11-13T10:15:12.205Z,56.31
2022-11-13T10:18:04.974Z,56.51
2022-11-13T10:20:58.260Z,55.90
2022-11-13T10:23:52.055Z,55.76
2022-11-13T10:26:38.985Z,55.67
2022-11-13T10:29:29.311Z,55.01
2022-11-13T10:32:21.791Z,54.91
2022-11-13T10:35:27.615Z,54.55
2022-11-13T10:38:23.172Z,54.05
2022-11-13T10:41:14.539Z,53.70
2022-11-13T10:44:06.625Z,53.40
2022-11-13T10:47:07.151Z,52.88
2022-11-13T10:49:56.719Z,52.74
2022-11-13T10:52:51.455Z,52.23
2022-11-13T10:55:40.908Z,52.02
2022-11-13T10:58:29.049Z,51.45
2022-11-13T11:01:18.044Z,51.31
2022-11-13T11:04:06.526Z,51.21
2022-11-13T11:07:18.861Z,50.88
2022-11-13T11:10:04.391Z,50.52
2022-11-13T11:12:56.002Z,50.19
2022-11-13T11:15:47.183Z,49.19
2022-11-13T11:18:42.668Z,49.33
2022-11-13T11:21:34.190Z,49.30
2022-11-13T11:24:28.385Z,48.79
2022-11-13T11:27:23.248Z,48.72
2022-11-13T11:30:20.797Z,48.52
2022-11-13T11:33:14.578Z,48.40
2022-11-13T11:36:09.021Z,47.88
2022-11-13T11:39:03.303Z,47.66
2022-11-13T11:41:58.628Z,47.73
2022-11-13T11:45:01.762Z,47.54
2022-11-13T11:47:49.164Z,47.06
2022-11-13T11:50:40.542Z,47.14
2022-11-13T11:53:42.487Z,46.58
2022-11-13T11:56:36.027Z,46.53
2022-11-13T11:59:45.509Z,46.11
2022-11-13T12:02:47.471Z,46.01
2022-11-13T12:05:45.677Z,45.59
2022-11-13T12:08:39.977Z,45.60
2022-11-13T12:11:31.760Z,45.14
2022-11-13T12:14:33.879Z,44.94
2022-11-13T12:17:42.703Z,44.64
2022-11-13T12:20:38.205Z,44.49
2022-11-13T12:23:36.745Z,44.43
2022-11-13T12:26:27.838Z,44.45
2022-11-13T12:29:34.286Z,44.33
2022-11-13T12:32:38.416Z,44.03
2022-11-13T12:35:27.786Z,44.05
2022-11-13T12:38:26.804Z,43.65
2022-11-13T12:41:23.936Z,43.67
2022-11-13T12:44:25.808Z,42.86
2022-11-13T12:47:14.128Z,42.84
2022-11-13T12:50:05.765Z,43.21
2022-11-13T12:53:01.314Z,43.05
2022-11-13T12:56:00.078Z,42.78
2022-11-13T12:59:23.708Z,42.84
2022-11-13T13:02:23.578Z,42.49
2022-11-13T13:05:22.764Z,42.51
2022-11-13T13:08:24.491Z,41.98
2022-11-13T13:11:17.888Z,41.90
2022-11-13T13:14:22.891Z,41.53
2022-11-13T13:17:19.728Z,41.30
2022-11-13T13:20:33.521Z,41.26
2022-11-13T13:23:29.962Z,41.73
2022-11-13T13:26:20.620Z,41.87
2022-11-13T13:29:19.594Z,41.67
2022-11-13T13:32:21.202Z,42.57
2022-11-13T13:35:18.777Z,41.94
2022-11-13T13:38:16.766Z,41.70
2022-11-13T13:41:17.474Z,42.05
2022-11-13T13:44:25.629Z,42.55
2022-11-13T13:47:21.463Z,42.67
2022-11-13T13:50:16.144Z,42.04
2022-11-13T13:53:03.957Z,41.96
2022-11-13T13:55:56.870Z,42.28
2022-11-13T13:58:44.664Z,41.77
2022-11-13T14:01:33.622Z,41.92
2022-11-13T14:04:24.327Z,42.20
2022-11-13T14:07:21.402Z,42.49
2022-11-13T14:10:16.151Z,42.65
2022-11-13T14:13:04.763Z,43.23
2022-11-13T14:16:02.316Z,42.50
2022-11-13T14:18:49.536Z,42.99
2022-11-13T14:21:37.425Z,43.52
2022-11-13T14:24:27.235Z,43.04
2022-11-13T14:27:19.500Z,42.97
2022-11-13T14:30:24.282Z,43.38
2022-11-13T14:33:16.029Z,43.29
2022-11-13T14:36:04.326Z,43.81
2022-11-13T14:38:52.408Z,43.97
2022-11-13T14:41:47.311Z,44.08
2022-11-13T14:44:36.515Z,44.63
2022-11-13T14:47:32.245Z,45.07
2022-11-13T14:50:25.581Z,45.48
2022-11-13T14:53:12.560Z,45.66
2022-11-13T14:56:02.776Z,46.09
2022-11-13T14:58:50.353Z,46.53
2022-11-13T15:01:38.314Z,46.91
2022-11-13T15:04:27.886Z,47.41
2022-11-13T15:07:22.956Z,47.81
2022-11-13T15:10:14.912Z,48.11
2022-11-13T15:13:04.033Z,48.20
2022-11-13T15:15:51.549Z,48.42
2022-11-13T15:18:38.625Z,49.05
2022-11-13T15:21:27.382Z,48.86
2022-11-13T15:24:15.506Z,49.15
2022-11-13T15:27:02.769Z,49.17
2022-11-13T15:29:50.400Z,49.60
2022-11-13T15:32:37.535Z,49.67
2022-11-13T15:35:24.654Z,49.96
2022-11-13T15:38:12.995Z,50.23
2022-11-13T15:41:00.973Z,50.23
2022-11-13T15:43:50.786Z,50.64
2022-11-13T15:46:38.178Z,50.73
2022-11-13T15:49:25.152Z,50.93
2022-11-13T15:52:12.355Z,51.32
2022-11-13T15:55:02.101Z,51.58
2022-11-13T15:57:50.501Z,51.74
2022-11-13T16:00:42.092Z,51.57
2022-11-13T16:03:32.026Z,51.85
2022-11-13T16:06:22.494Z,51.83
2022-11-13T16:09:15.284Z,52.10
2022-11-13T16:12:03.843Z,52.18
2022-11-13T16:14:51.586Z,52.32
2022-11-13T16:17:42.359Z,52.69
2022-11-13T16:20:29.759Z,52.60
2022-11-13T16:23:18.229Z,52.83
2022-11-13T16:26:06.974Z,52.77
2022-11-13T16:29:13.283Z,52.68
2022-11-13T16:32:01.448Z,52.80
2022-11-13T16:34:48.664Z,53.01
2022-11-13T16:37:36.260Z,53.11
2022-11-13T16:40:25.996Z,53.47
2022-11-13T16:43:13.998Z,53.34
2022-11-13T16:46:03.260Z,53.52
2022-11-13T16:48:49.907Z,53.50
2022-11-13T16:51:37.046Z,53.62
2022-11-13T16:54:24.073Z,53.79
2022-11-13T16:57:12.510Z,54.13
2022-11-13T16:59:59.371Z,54.30
2022-11-13T17:02:51.422Z,54.18
2022-11-13T17:05:38.255Z,54.53
2022-11-13T17:08:26.211Z,54.34
2022-11-13T17:11:14.984Z,54.36
2022-11-13T17:14:03.601Z,54.70
2022-11-13T17:16:50.560Z,54.66
2022-11-13T17:19:44.225Z,55.03
2022-11-13T17:22:31.572Z,55.09
2022-11-13T17:25:20.981Z,54.90
2022-11-13T17:28:08.072Z,55.11
2022-11-13T17:30:59.050Z,55.36
2022-11-13T17:33:47.202Z,55.33
2022-11-13T17:36:35.977Z,55.48
2022-11-13T17:39:23.165Z,55.22
2022-11-13T17:42:10.966Z,55.63
2022-11-13T17:44:58.448Z,55.76
2022-11-13T17:47:45.769Z,55.79
2022-11-13T17:50:32.792Z,55.93
2022-11-13T17:53:22.204Z,55.85
2022-11-13T17:56:12.273Z,56.17
2022-11-13T17:59:00.153Z,56.23
2022-11-13T18:01:47.223Z,55.95
2022-11-13T18:04:35.105Z,56.13
2022-11-13T18:07:22.233Z,56.50
2022-11-13T18:10:11.785Z,56.33
2022-11-13T18:12:59.094Z,56.52
2022-11-13T18:15:46.808Z,56.70
2022-11-13T18:18:34.196Z,56.83
2022-11-13T18:21:23.603Z,56.87
2022-11-13T18:24:14.849Z,57.16
2022-11-13T18:27:05.881Z,57.26
2022-11-13T18:29:54.049Z,56.91
2022-11-13T18:32:41.159Z,56.92
2022-11-13T18:35:29.229Z,57.30
2022-11-13T18:38:16.229Z,57.26
2022-11-13T18:41:04.549Z,57.46
2022-11-13T18:43:54.580Z,57.50
2022-11-13T18:46:41.398Z,57.56
2022-11-13T18:49:29.157Z,57.37
2022-11-13T18:52:16.246Z,57.49
2022-11-13T18:55:04.196Z,57.66
2022-11-13T18:57:51.757Z,57.94
2022-11-13T19:00:40.074Z,57.76
2022-11-13T19:03:28.220Z,58.10
2022-11-13T19:06:18.269Z,58.30
2022-11-13T19:09:07.732Z,58.04
2022-11-13T19:11:55.411Z,58.16
2022-11-13T19:14:42.608Z,58.26
2022-11-13T19:17:31.273Z,58.24
2022-11-13T19:20:19.467Z,58.10
2022-11-13T19:23:09.184Z,58.43
2022-11-13T19:25:57.475Z,58.65
2022-11-13T19:28:48.307Z,58.63
2022-11-13T19:31:36.283Z,58.66
2022-11-13T19:34:25.268Z,58.49
2022-11-13T19:37:17.752Z,58.89
2022-11-13T19:40:06.555Z,58.76
2022-11-13T19:42:54.209Z,58.96
2022-11-13T19:45:42.068Z,58.92
2022-11-13T19:48:29.698Z,59.29
2022-11-13T19:51:21.778Z,59.26
2022-11-13T19:54:09.095Z,59.32
2022-11-13T19:56:55.961Z,59.49
2022-11-13T19:59:42.864Z,59.38
2022-11-13T20:02:30.811Z,59.58
2022-11-13T20:05:17.973Z,59.65
2022-11-13T20:08:06.577Z,59.49
2022-11-13T20:10:53.480Z,59.81
2022-11-13T20:13:42.099Z,59.63
2022-11-13T20:16:28.965Z,59.54
2022-11-13T20:19:16.405Z,59.80
2022-11-13T20:22:03.448Z,59.92
2022-11-13T20:24:52.622Z,60.09
2022-11-13T20:27:41.918Z,59.89
2022-11-13T20:30:34.055Z,60.09
2022-11-13T20:33:22.948Z,60.38
2022-11-13T20:36:10.912Z,60.15
2022-11-13T20:38:59.737Z,60.51
2022-11-13T20:41:48.550Z,60.46
2022-11-13T20:44:35.653Z,60.76
2022-11-13T20:47:23.306Z,60.47
2022-11-13T20:50:11.387Z,60.67
2022-11-13T20:52:59.304Z,60.54
2022-11-13T20:55:46.702Z,60.83
2022-11-13T20:58:35.538Z,60.63
2022-11-13T21:01:25.723Z,60.95
2022-11-13T21:04:12.561Z,60.85
2022-11-13T21:07:00.041Z,60.99
2022-11-13T21:09:50.073Z,60.90
2022-11-13T21:12:37.382Z,60.96
2022-11-13T21:15:26.718Z,61.09
2022-11-13T21:18:14.471Z,61.18
2022-11-13T21:21:05.630Z,61.00
2022-11-13T21:23:53.697Z,61.06
2022-11-13T21:26:40.832Z,61.18
2022-11-13T21:29:28.246Z,61.25
2022-11-13T21:32:16.697Z,61.15
2022-11-13T21:35:03.845Z,61.22
2022-11-13T21:37:51.901Z,61.52
2022-11-13T21:40:39.392Z,61.46
2022-11-13T21:43:26.850Z,61.73
2022-11-13T21:46:14.777Z,61.62
2022-11-13T21:49:05.587Z,61.62
2022-11-13T21:51:52.878Z,61.47
2022-11-13T21:54:39.722Z,61.85
2022-11-13T21:57:27.155Z,61.61
2022-11-13T22:00:16.355Z,61.63
2022-11-13T22:03:03.472Z,61.81
2022-11-13T22:05:52.916Z,61.83
2022-11-13T22:08:39.933Z,61.69
2022-11-13T22:11:29.434Z,61.72
2022-11-13T22:14:16.891Z,61.73
2022-11-13T22:17:04.703Z,61.79
2022-11-13T22:19:52.164Z,61.80
2022-11-13T22:22:41.098Z,61.72
2022-11-13T22:25:28.246Z,61.67
2022-11-13T22:28:16.314Z,62.00
2022-11-13T22:31:04.048Z,62.00
2022-11-13T22:33:54.938Z,62.09
2022-11-13T22:36:43.432Z,61.89
2022-11-13T22:39:32.253Z,62.03
2022-11-13T22:42:19.109Z,61.86
2022-11-13T22:45:22.739Z,61.89
2022-11-13T22:48:11.244Z,62.00
2022-11-13T22:51:04.031Z,62.06
2022-11-13T22:53:53.417Z,62.38
2022-11-13T22:56:42.796Z,62.10
2022-11-13T22:59:29.432Z,62.22
2022-11-13T23:02:17.435Z,62.39
2022-11-13T23:05:05.658Z,62.39
2022-11-13T23:07:54.601Z,62.44
2022-11-13T23:10:41.483Z,62.30
2022-11-13T23:13:30.244Z,62.40
2022-11-13T23:16:17.998Z,62.50
2022-11-13T23:19:05.664Z,62.70
2022-11-13T23:21:52.573Z,62.63
2022-11-13T23:24:40.573Z,62.92
2022-11-13T23:27:27.795Z,62.77
2022-11-13T23:30:16.950Z,63.08
2022-11-13T23:33:04.649Z,63.08
2022-11-13T23:35:52.203Z,63.13
2022-11-13T23:38:40.119Z,63.43
2022-11-13T23:41:27.585Z,63.40
2022-11-13T23:44:14.769Z,63.85
2022-11-13T23:47:03.715Z,63.90
2022-11-13T23:49:51.825Z,63.98
2022-11-13T23:52:38.930Z,64.18
2022-11-13T23:55:26.239Z,64.44
2022-11-13T23:58:14.845Z,64.38
